Terminal Aerodrome Forecast
Issued by NWS Corpus Christi, TX

Home | Current Version | Previous Version | Text Only | Print | Product List | Glossary On
Versions: 1 2 3 4 5 6 7 8 9 10 11 12 13 14 15 16 17 18 19 20 21 22
000
FTUS44 KCRP 272334
TAFVCT
TAF
KVCT 272334Z 2800/2824 13015KT P6SM SCT035
     FM280300 12007KT 6SM BR OVC015
      TEMPO 2808/2812 4SM BR BKN008
     FM281500 15012KT P6SM BKN025
     FM281700 14012G20KT P6SM BKN035=

USA.gov is the U.S. government's official web portal to all federal, state and local government web resources and services.